Portada
METAR-TAF:

METAR-TAF

Aeropuertos :

Shahrekord, Irán

latitud: 32-20N, longitud: 050-51E, altitud: 2078 m

Observación

El informe se hizo hace 29 minutos, a las 04:00 UTC
Viento 4 kt del noroeste
Temperatura -5°C
Humedad 86%
Presión 1019 hPa
Visibilidad: 8000 m

METAR: OIFS 280400Z 32004KT 8000 NSC M05/M07 Q1019

Hora: 07:59 (04:29 UTC)


TAF: falta

Observaciones y pronósticos meteorológicos de más de 4000 aeropuertos (mensajes METAR y TAF).

Los puntos amarillos y rojos representan las estaciones disponibles.

Ponga el ratón en el punto deseado para ver el nombre de la estación.

Haga clic para ver las observaciones y los pronósticos meteorológicos.

Para cambiar el mapa : haga clic en los botones verdes con una cruz de color negro para hacer un zoom, en el botón verde con un guión para alejar o en las flechas verdes para mapas adyacentes.


METAR-TAF: